sensor_id;sensor_type;location;lat;lon;timestamp;P1;durP1;ratioP1;P2;durP2;ratioP2
76417;SDS011;65250;47.602;19.002;2023-04-15T00:01:09;11.35;;;6.70;;
76417;SDS011;65250;47.602;19.002;2023-04-15T00:03:37;10.90;;;6.70;;
76417;SDS011;65250;47.602;19.002;2023-04-15T00:06:04;12.02;;;6.57;;
76417;SDS011;65250;47.602;19.002;2023-04-15T00:08:31;12.17;;;6.73;;
76417;SDS011;65250;47.602;19.002;2023-04-15T00:10:58;10.98;;;6.07;;
76417;SDS011;65250;47.602;19.002;2023-04-15T00:13:28;10.90;;;6.15;;
76417;SDS011;65250;47.602;19.002;2023-04-15T00:15:55;10.35;;;5.95;;
76417;SDS011;65250;47.602;19.002;2023-04-15T00:18:23;10.13;;;6.03;;
76417;SDS011;65250;47.602;19.002;2023-04-15T00:20:50;12.00;;;7.00;;
76417;SDS011;65250;47.602;19.002;2023-04-15T00:23:17;13.55;;;7.28;;
76417;SDS011;65250;47.602;19.002;2023-04-15T00:25:44;12.88;;;7.38;;
76417;SDS011;65250;47.602;19.002;2023-04-15T00:28:12;14.50;;;7.82;;
76417;SDS011;65250;47.602;19.002;2023-04-15T00:30:39;13.85;;;7.72;;
76417;SDS011;65250;47.602;19.002;2023-04-15T00:33:05;14.03;;;7.77;;
76417;SDS011;65250;47.602;19.002;2023-04-15T00:35:33;13.68;;;7.68;;
76417;SDS011;65250;47.602;19.002;2023-04-15T00:38:01;12.60;;;7.70;;
76417;SDS011;65250;47.602;19.002;2023-04-15T00:40:27;12.15;;;7.00;;
76417;SDS011;65250;47.602;19.002;2023-04-15T00:42:54;12.85;;;6.85;;
76417;SDS011;65250;47.602;19.002;2023-04-15T00:45:21;13.03;;;7.47;;
76417;SDS011;65250;47.602;19.002;2023-04-15T00:47:48;14.27;;;8.18;;
76417;SDS011;65250;47.602;19.002;2023-04-15T00:50:16;13.60;;;7.32;;
76417;SDS011;65250;47.602;19.002;2023-04-15T00:52:43;9.65;;;5.32;;
76417;SDS011;65250;47.602;19.002;2023-04-15T00:55:10;12.00;;;6.75;;
76417;SDS011;65250;47.602;19.002;2023-04-15T00:57:37;8.80;;;5.50;;
76417;SDS011;65250;47.602;19.002;2023-04-15T01:00:05;9.00;;;5.03;;
76417;SDS011;65250;47.602;19.002;2023-04-15T01:02:34;8.65;;;4.88;;
76417;SDS011;65250;47.602;19.002;2023-04-15T01:05:03;8.48;;;4.70;;
76417;SDS011;65250;47.602;19.002;2023-04-15T01:07:31;8.68;;;4.82;;
76417;SDS011;65250;47.602;19.002;2023-04-15T01:09:57;9.87;;;5.33;;
76417;SDS011;65250;47.602;19.002;2023-04-15T01:12:25;9.35;;;5.00;;
76417;SDS011;65250;47.602;19.002;2023-04-15T01:14:53;7.50;;;3.90;;
76417;SDS011;65250;47.602;19.002;2023-04-15T01:17:21;11.05;;;4.75;;
76417;SDS011;65250;47.602;19.002;2023-04-15T01:19:50;7.13;;;4.18;;
76417;SDS011;65250;47.602;19.002;2023-04-15T01:22:17;7.57;;;3.93;;
76417;SDS011;65250;47.602;19.002;2023-04-15T01:24:50;6.80;;;3.67;;
76417;SDS011;65250;47.602;19.002;2023-04-15T01:27:21;6.38;;;3.65;;
76417;SDS011;65250;47.602;19.002;2023-04-15T01:29:48;5.75;;;3.78;;
76417;SDS011;65250;47.602;19.002;2023-04-15T01:32:15;7.57;;;4.20;;
76417;SDS011;65250;47.602;19.002;2023-04-15T01:34:42;6.87;;;3.90;;
76417;SDS011;65250;47.602;19.002;2023-04-15T01:37:09;5.50;;;3.45;;
76417;SDS011;65250;47.602;19.002;2023-04-15T01:39:36;8.13;;;4.10;;
76417;SDS011;65250;47.602;19.002;2023-04-15T01:42:02;7.13;;;4.32;;
76417;SDS011;65250;47.602;19.002;2023-04-15T01:44:29;7.68;;;4.63;;
76417;SDS011;65250;47.602;19.002;2023-04-15T01:46:56;10.57;;;5.07;;
76417;SDS011;65250;47.602;19.002;2023-04-15T01:49:23;8.18;;;5.20;;
76417;SDS011;65250;47.602;19.002;2023-04-15T01:51:50;11.40;;;5.82;;
76417;SDS011;65250;47.602;19.002;2023-04-15T01:54:17;11.65;;;6.00;;
76417;SDS011;65250;47.602;19.002;2023-04-15T01:56:44;10.70;;;6.03;;
76417;SDS011;65250;47.602;19.002;2023-04-15T01:59:10;9.97;;;6.00;;
76417;SDS011;65250;47.602;19.002;2023-04-15T02:01:37;10.40;;;6.35;;
76417;SDS011;65250;47.602;19.002;2023-04-15T02:04:05;9.02;;;5.65;;
76417;SDS011;65250;47.602;19.002;2023-04-15T02:06:32;10.57;;;6.50;;
76417;SDS011;65250;47.602;19.002;2023-04-15T02:08:59;11.77;;;6.15;;
76417;SDS011;65250;47.602;19.002;2023-04-15T02:11:26;10.17;;;5.83;;
76417;SDS011;65250;47.602;19.002;2023-04-15T02:13:53;12.43;;;7.10;;
76417;SDS011;65250;47.602;19.002;2023-04-15T02:16:20;12.23;;;6.40;;
76417;SDS011;65250;47.602;19.002;2023-04-15T02:18:47;10.55;;;5.93;;
76417;SDS011;65250;47.602;19.002;2023-04-15T02:21:14;9.52;;;5.75;;
76417;SDS011;65250;47.602;19.002;2023-04-15T02:23:41;9.90;;;5.53;;
76417;SDS011;65250;47.602;19.002;2023-04-15T02:26:09;8.80;;;5.35;;
76417;SDS011;65250;47.602;19.002;2023-04-15T02:28:36;10.65;;;5.80;;
76417;SDS011;65250;47.602;19.002;2023-04-15T02:31:06;12.15;;;6.40;;
76417;SDS011;65250;47.602;19.002;2023-04-15T02:33:33;10.20;;;6.05;;
76417;SDS011;65250;47.602;19.002;2023-04-15T02:36:00;10.07;;;5.73;;
76417;SDS011;65250;47.602;19.002;2023-04-15T02:38:27;8.27;;;5.20;;
76417;SDS011;65250;47.602;19.002;2023-04-15T02:40:53;9.07;;;5.93;;
76417;SDS011;65250;47.602;19.002;2023-04-15T02:43:20;12.45;;;5.85;;
76417;SDS011;65250;47.602;19.002;2023-04-15T02:45:47;12.93;;;6.00;;
76417;SDS011;65250;47.602;19.002;2023-04-15T02:48:15;9.23;;;5.20;;
76417;SDS011;65250;47.602;19.002;2023-04-15T02:50:45;9.25;;;5.10;;
76417;SDS011;65250;47.602;19.002;2023-04-15T02:53:12;9.25;;;5.38;;
76417;SDS011;65250;47.602;19.002;2023-04-15T02:55:40;9.82;;;4.95;;
76417;SDS011;65250;47.602;19.002;2023-04-15T02:58:08;11.52;;;5.85;;
76417;SDS011;65250;47.602;19.002;2023-04-15T03:00:34;8.77;;;5.40;;
76417;SDS011;65250;47.602;19.002;2023-04-15T03:03:02;9.30;;;5.05;;
76417;SDS011;65250;47.602;19.002;2023-04-15T03:05:32;8.05;;;4.65;;
76417;SDS011;65250;47.602;19.002;2023-04-15T03:07:59;9.25;;;4.57;;
76417;SDS011;65250;47.602;19.002;2023-04-15T03:10:26;6.82;;;4.28;;
76417;SDS011;65250;47.602;19.002;2023-04-15T03:12:53;8.07;;;4.23;;
76417;SDS011;65250;47.602;19.002;2023-04-15T03:15:21;8.35;;;4.53;;
76417;SDS011;65250;47.602;19.002;2023-04-15T03:17:48;7.40;;;4.10;;
76417;SDS011;65250;47.602;19.002;2023-04-15T03:20:15;6.85;;;4.55;;
76417;SDS011;65250;47.602;19.002;2023-04-15T03:22:42;7.13;;;4.10;;
76417;SDS011;65250;47.602;19.002;2023-04-15T03:25:09;7.17;;;4.27;;
76417;SDS011;65250;47.602;19.002;2023-04-15T03:27:36;7.80;;;4.65;;
76417;SDS011;65250;47.602;19.002;2023-04-15T03:30:04;9.02;;;5.15;;
76417;SDS011;65250;47.602;19.002;2023-04-15T03:32:32;8.15;;;4.55;;
76417;SDS011;65250;47.602;19.002;2023-04-15T03:34:59;9.25;;;5.10;;
76417;SDS011;65250;47.602;19.002;2023-04-15T03:37:25;6.37;;;4.03;;
76417;SDS011;65250;47.602;19.002;2023-04-15T03:39:52;7.47;;;4.28;;
76417;SDS011;65250;47.602;19.002;2023-04-15T03:42:19;9.50;;;5.15;;
76417;SDS011;65250;47.602;19.002;2023-04-15T03:44:46;7.88;;;4.80;;
76417;SDS011;65250;47.602;19.002;2023-04-15T03:47:13;7.65;;;4.50;;
76417;SDS011;65250;47.602;19.002;2023-04-15T03:49:39;8.93;;;4.67;;
76417;SDS011;65250;47.602;19.002;2023-04-15T03:52:06;8.25;;;4.75;;
76417;SDS011;65250;47.602;19.002;2023-04-15T03:54:33;7.78;;;4.72;;
76417;SDS011;65250;47.602;19.002;2023-04-15T03:57:00;8.07;;;5.13;;
76417;SDS011;65250;47.602;19.002;2023-04-15T03:59:27;7.13;;;4.97;;
76417;SDS011;65250;47.602;19.002;2023-04-15T04:01:53;7.47;;;4.43;;
76417;SDS011;65250;47.602;19.002;2023-04-15T04:04:20;7.60;;;5.00;;
76417;SDS011;65250;47.602;19.002;2023-04-15T04:06:48;7.95;;;4.68;;
76417;SDS011;65250;47.602;19.002;2023-04-15T04:09:14;7.90;;;4.55;;
76417;SDS011;65250;47.602;19.002;2023-04-15T04:11:41;7.88;;;4.90;;
76417;SDS011;65250;47.602;19.002;2023-04-15T04:14:08;8.97;;;5.57;;
76417;SDS011;65250;47.602;19.002;2023-04-15T04:16:35;7.53;;;5.00;;
76417;SDS011;65250;47.602;19.002;2023-04-15T04:19:02;7.47;;;5.00;;
76417;SDS011;65250;47.602;19.002;2023-04-15T04:21:29;7.50;;;4.53;;
76417;SDS011;65250;47.602;19.002;2023-04-15T04:23:56;6.75;;;4.57;;
76417;SDS011;65250;47.602;19.002;2023-04-15T04:26:24;7.60;;;4.47;;
76417;SDS011;65250;47.602;19.002;2023-04-15T04:28:51;7.85;;;4.80;;
76417;SDS011;65250;47.602;19.002;2023-04-15T04:31:18;7.07;;;4.53;;
76417;SDS011;65250;47.602;19.002;2023-04-15T04:33:45;7.82;;;5.25;;
76417;SDS011;65250;47.602;19.002;2023-04-15T04:36:11;9.70;;;4.97;;
76417;SDS011;65250;47.602;19.002;2023-04-15T04:38:38;9.47;;;4.70;;
76417;SDS011;65250;47.602;19.002;2023-04-15T04:41:05;9.40;;;5.60;;
76417;SDS011;65250;47.602;19.002;2023-04-15T04:43:32;8.50;;;5.20;;
76417;SDS011;65250;47.602;19.002;2023-04-15T04:45:58;7.55;;;4.65;;
76417;SDS011;65250;47.602;19.002;2023-04-15T04:48:25;7.38;;;4.45;;
76417;SDS011;65250;47.602;19.002;2023-04-15T04:50:52;10.30;;;6.03;;
76417;SDS011;65250;47.602;19.002;2023-04-15T04:53:19;10.40;;;5.60;;
76417;SDS011;65250;47.602;19.002;2023-04-15T04:55:46;9.90;;;5.72;;
76417;SDS011;65250;47.602;19.002;2023-04-15T04:58:12;8.52;;;4.95;;
76417;SDS011;65250;47.602;19.002;2023-04-15T05:00:39;7.07;;;4.90;;
76417;SDS011;65250;47.602;19.002;2023-04-15T05:03:06;8.50;;;4.80;;
76417;SDS011;65250;47.602;19.002;2023-04-15T05:05:33;8.15;;;5.20;;
76417;SDS011;65250;47.602;19.002;2023-04-15T05:08:02;7.80;;;5.20;;
76417;SDS011;65250;47.602;19.002;2023-04-15T05:10:29;9.40;;;5.63;;
76417;SDS011;65250;47.602;19.002;2023-04-15T05:12:56;8.57;;;4.85;;
76417;SDS011;65250;47.602;19.002;2023-04-15T05:15:23;7.93;;;4.87;;
76417;SDS011;65250;47.602;19.002;2023-04-15T05:17:50;7.28;;;5.28;;
76417;SDS011;65250;47.602;19.002;2023-04-15T05:20:17;8.77;;;5.28;;
76417;SDS011;65250;47.602;19.002;2023-04-15T05:22:43;7.18;;;4.63;;
76417;SDS011;65250;47.602;19.002;2023-04-15T05:25:10;7.60;;;5.18;;
76417;SDS011;65250;47.602;19.002;2023-04-15T05:27:38;10.43;;;6.03;;
76417;SDS011;65250;47.602;19.002;2023-04-15T05:30:04;11.00;;;6.30;;
76417;SDS011;65250;47.602;19.002;2023-04-15T05:32:32;8.80;;;5.45;;
76417;SDS011;65250;47.602;19.002;2023-04-15T05:34:59;11.10;;;6.60;;
76417;SDS011;65250;47.602;19.002;2023-04-15T05:37:26;8.13;;;6.07;;
76417;SDS011;65250;47.602;19.002;2023-04-15T05:39:53;8.27;;;5.80;;
76417;SDS011;65250;47.602;19.002;2023-04-15T05:42:19;9.05;;;5.65;;
76417;SDS011;65250;47.602;19.002;2023-04-15T05:44:46;11.48;;;6.13;;
76417;SDS011;65250;47.602;19.002;2023-04-15T05:47:13;11.40;;;5.82;;
76417;SDS011;65250;47.602;19.002;2023-04-15T05:49:40;9.75;;;6.13;;
76417;SDS011;65250;47.602;19.002;2023-04-15T05:52:06;10.37;;;6.40;;
76417;SDS011;65250;47.602;19.002;2023-04-15T05:54:33;9.93;;;6.53;;
76417;SDS011;65250;47.602;19.002;2023-04-15T05:57:00;9.20;;;6.10;;
76417;SDS011;65250;47.602;19.002;2023-04-15T05:59:28;11.48;;;6.22;;
76417;SDS011;65250;47.602;19.002;2023-04-15T06:01:54;10.73;;;6.50;;
76417;SDS011;65250;47.602;19.002;2023-04-15T06:04:21;8.17;;;5.83;;
76417;SDS011;65250;47.602;19.002;2023-04-15T06:06:48;10.20;;;6.75;;
76417;SDS011;65250;47.602;19.002;2023-04-15T06:09:15;9.30;;;6.15;;
76417;SDS011;65250;47.602;19.002;2023-04-15T06:11:42;10.27;;;5.95;;
76417;SDS011;65250;47.602;19.002;2023-04-15T06:14:09;10.00;;;6.57;;
76417;SDS011;65250;47.602;19.002;2023-04-15T06:16:35;8.83;;;6.23;;
76417;SDS011;65250;47.602;19.002;2023-04-15T06:19:02;9.55;;;6.25;;
76417;SDS011;65250;47.602;19.002;2023-04-15T06:21:29;8.38;;;5.47;;
76417;SDS011;65250;47.602;19.002;2023-04-15T06:23:57;9.52;;;5.63;;
76417;SDS011;65250;47.602;19.002;2023-04-15T06:26:25;10.35;;;6.68;;
76417;SDS011;65250;47.602;19.002;2023-04-15T06:28:52;8.73;;;5.73;;
76417;SDS011;65250;47.602;19.002;2023-04-15T06:31:19;9.38;;;5.72;;
76417;SDS011;65250;47.602;19.002;2023-04-15T06:33:46;8.13;;;5.85;;
76417;SDS011;65250;47.602;19.002;2023-04-15T06:36:13;6.43;;;4.70;;
76417;SDS011;65250;47.602;19.002;2023-04-15T06:38:39;7.47;;;5.43;;
76417;SDS011;65250;47.602;19.002;2023-04-15T06:41:06;8.13;;;4.67;;
76417;SDS011;65250;47.602;19.002;2023-04-15T06:43:33;5.57;;;4.38;;
76417;SDS011;65250;47.602;19.002;2023-04-15T06:46:00;6.55;;;4.25;;
76417;SDS011;65250;47.602;19.002;2023-04-15T06:48:27;6.20;;;4.50;;
76417;SDS011;65250;47.602;19.002;2023-04-15T06:50:54;5.85;;;4.30;;
76417;SDS011;65250;47.602;19.002;2023-04-15T06:53:21;5.83;;;3.80;;
76417;SDS011;65250;47.602;19.002;2023-04-15T06:55:48;5.25;;;3.42;;
76417;SDS011;65250;47.602;19.002;2023-04-15T06:58:15;4.78;;;3.55;;
76417;SDS011;65250;47.602;19.002;2023-04-15T07:00:42;5.28;;;3.45;;
76417;SDS011;65250;47.602;19.002;2023-04-15T07:03:10;5.22;;;3.80;;
76417;SDS011;65250;47.602;19.002;2023-04-15T07:05:38;4.13;;;3.00;;
76417;SDS011;65250;47.602;19.002;2023-04-15T07:08:05;4.32;;;3.35;;
76417;SDS011;65250;47.602;19.002;2023-04-15T07:10:32;5.47;;;3.30;;
76417;SDS011;65250;47.602;19.002;2023-04-15T07:12:59;4.07;;;3.05;;
76417;SDS011;65250;47.602;19.002;2023-04-15T07:15:27;5.85;;;3.50;;
76417;SDS011;65250;47.602;19.002;2023-04-15T07:17:55;5.23;;;3.10;;
76417;SDS011;65250;47.602;19.002;2023-04-15T07:20:22;6.25;;;3.45;;
76417;SDS011;65250;47.602;19.002;2023-04-15T07:22:48;5.68;;;2.80;;
76417;SDS011;65250;47.602;19.002;2023-04-15T07:25:15;4.50;;;2.47;;
76417;SDS011;65250;47.602;19.002;2023-04-15T07:27:43;3.60;;;3.08;;
76417;SDS011;65250;47.602;19.002;2023-04-15T07:30:10;4.43;;;3.07;;
76417;SDS011;65250;47.602;19.002;2023-04-15T07:32:37;3.90;;;2.72;;
76417;SDS011;65250;47.602;19.002;2023-04-15T07:35:04;4.38;;;3.17;;
76417;SDS011;65250;47.602;19.002;2023-04-15T07:37:31;3.85;;;3.15;;
76417;SDS011;65250;47.602;19.002;2023-04-15T07:39:59;5.35;;;3.15;;
76417;SDS011;65250;47.602;19.002;2023-04-15T07:42:25;3.87;;;2.90;;
76417;SDS011;65250;47.602;19.002;2023-04-15T07:44:52;3.95;;;2.83;;
76417;SDS011;65250;47.602;19.002;2023-04-15T07:47:19;4.25;;;3.50;;
76417;SDS011;65250;47.602;19.002;2023-04-15T07:49:46;4.28;;;3.28;;
76417;SDS011;65250;47.602;19.002;2023-04-15T07:52:13;3.72;;;3.05;;
76417;SDS011;65250;47.602;19.002;2023-04-15T07:54:40;5.83;;;2.63;;
76417;SDS011;65250;47.602;19.002;2023-04-15T07:57:07;2.50;;;2.20;;
76417;SDS011;65250;47.602;19.002;2023-04-15T07:59:34;3.65;;;1.98;;
76417;SDS011;65250;47.602;19.002;2023-04-15T08:02:00;3.88;;;2.00;;
76417;SDS011;65250;47.602;19.002;2023-04-15T08:04:28;3.67;;;2.55;;
76417;SDS011;65250;47.602;19.002;2023-04-15T08:06:55;3.00;;;2.20;;
76417;SDS011;65250;47.602;19.002;2023-04-15T08:09:21;2.58;;;1.50;;
76417;SDS011;65250;47.602;19.002;2023-04-15T08:11:48;2.13;;;1.70;;
76417;SDS011;65250;47.602;19.002;2023-04-15T08:14:16;1.50;;;1.23;;
76417;SDS011;65250;47.602;19.002;2023-04-15T08:16:43;2.92;;;1.60;;
76417;SDS011;65250;47.602;19.002;2023-04-15T08:19:10;1.93;;;1.63;;
76417;SDS011;65250;47.602;19.002;2023-04-15T08:21:36;2.03;;;1.40;;
76417;SDS011;65250;47.602;19.002;2023-04-15T08:24:03;2.63;;;1.60;;
76417;SDS011;65250;47.602;19.002;2023-04-15T08:26:32;2.15;;;1.42;;
76417;SDS011;65250;47.602;19.002;2023-04-15T08:28:59;1.48;;;1.27;;
76417;SDS011;65250;47.602;19.002;2023-04-15T08:31:27;2.20;;;1.80;;
76417;SDS011;65250;47.602;19.002;2023-04-15T08:33:55;2.13;;;1.90;;
76417;SDS011;65250;47.602;19.002;2023-04-15T08:36:23;1.83;;;1.55;;
76417;SDS011;65250;47.602;19.002;2023-04-15T08:38:49;2.58;;;2.10;;
76417;SDS011;65250;47.602;19.002;2023-04-15T08:41:23;2.22;;;1.73;;
76417;SDS011;65250;47.602;19.002;2023-04-15T08:43:58;2.47;;;2.27;;
76417;SDS011;65250;47.602;19.002;2023-04-15T08:46:27;2.28;;;2.08;;
76417;SDS011;65250;47.602;19.002;2023-04-15T08:48:56;3.05;;;1.80;;
76417;SDS011;65250;47.602;19.002;2023-04-15T08:51:23;3.60;;;2.40;;
76417;SDS011;65250;47.602;19.002;2023-04-15T08:53:52;2.92;;;2.03;;
76417;SDS011;65250;47.602;19.002;2023-04-15T08:56:19;2.30;;;2.00;;
76417;SDS011;65250;47.602;19.002;2023-04-15T08:58:50;4.55;;;2.05;;
76417;SDS011;65250;47.602;19.002;2023-04-15T09:01:17;1.67;;;1.52;;
76417;SDS011;65250;47.602;19.002;2023-04-15T09:03:45;1.92;;;1.10;;
76417;SDS011;65250;47.602;19.002;2023-04-15T09:06:15;1.00;;;0.90;;
76417;SDS011;65250;47.602;19.002;2023-04-15T09:08:42;2.93;;;1.47;;
76417;SDS011;65250;47.602;19.002;2023-04-15T09:11:10;3.75;;;1.33;;
76417;SDS011;65250;47.602;19.002;2023-04-15T09:13:37;2.72;;;1.45;;
76417;SDS011;65250;47.602;19.002;2023-04-15T09:16:05;2.58;;;1.55;;
76417;SDS011;65250;47.602;19.002;2023-04-15T09:18:32;3.70;;;1.90;;
76417;SDS011;65250;47.602;19.002;2023-04-15T09:21:05;2.70;;;1.87;;
76417;SDS011;65250;47.602;19.002;2023-04-15T09:23:37;2.60;;;1.90;;
76417;SDS011;65250;47.602;19.002;2023-04-15T09:26:05;3.20;;;2.20;;
76417;SDS011;65250;47.602;19.002;2023-04-15T09:28:32;2.78;;;2.15;;
76417;SDS011;65250;47.602;19.002;2023-04-15T09:31:01;3.45;;;2.17;;
76417;SDS011;65250;47.602;19.002;2023-04-15T09:33:28;3.67;;;2.03;;
76417;SDS011;65250;47.602;19.002;2023-04-15T09:38:30;3.20;;;2.13;;
76417;SDS011;65250;47.602;19.002;2023-04-15T09:40:58;2.83;;;1.60;;
76417;SDS011;65250;47.602;19.002;2023-04-15T09:43:37;1.55;;;1.40;;
76417;SDS011;65250;47.602;19.002;2023-04-15T09:46:05;3.37;;;1.53;;
76417;SDS011;65250;47.602;19.002;2023-04-15T09:48:32;2.45;;;1.60;;
76417;SDS011;65250;47.602;19.002;2023-04-15T09:50:59;2.20;;;1.70;;
76417;SDS011;65250;47.602;19.002;2023-04-15T09:53:27;4.97;;;2.95;;
76417;SDS011;65250;47.602;19.002;2023-04-15T09:55:57;4.45;;;2.65;;
76417;SDS011;65250;47.602;19.002;2023-04-15T09:58:32;5.17;;;2.60;;
76417;SDS011;65250;47.602;19.002;2023-04-15T10:01:02;2.97;;;2.15;;
76417;SDS011;65250;47.602;19.002;2023-04-15T10:03:30;4.35;;;2.40;;
76417;SDS011;65250;47.602;19.002;2023-04-15T10:06:00;3.17;;;2.47;;
76417;SDS011;65250;47.602;19.002;2023-04-15T10:08:28;3.47;;;2.25;;
76417;SDS011;65250;47.602;19.002;2023-04-15T10:10:56;3.43;;;2.00;;
76417;SDS011;65250;47.602;19.002;2023-04-15T10:13:24;3.17;;;1.88;;
76417;SDS011;65250;47.602;19.002;2023-04-15T10:15:56;2.53;;;1.80;;
76417;SDS011;65250;47.602;19.002;2023-04-15T10:18:27;2.17;;;1.52;;
76417;SDS011;65250;47.602;19.002;2023-04-15T10:20:54;3.05;;;1.52;;
76417;SDS011;65250;47.602;19.002;2023-04-15T10:23:21;2.80;;;1.60;;
76417;SDS011;65250;47.602;19.002;2023-04-15T10:25:50;1.50;;;1.20;;
76417;SDS011;65250;47.602;19.002;2023-04-15T10:28:19;1.60;;;1.27;;
76417;SDS011;65250;47.602;19.002;2023-04-15T10:30:48;1.20;;;0.68;;
76417;SDS011;65250;47.602;19.002;2023-04-15T10:33:20;0.70;;;0.68;;
76417;SDS011;65250;47.602;19.002;2023-04-15T10:35:49;0.80;;;0.70;;
76417;SDS011;65250;47.602;19.002;2023-04-15T10:38:33;1.17;;;0.88;;
76417;SDS011;65250;47.602;19.002;2023-04-15T10:46:16;1.25;;;1.10;;
76417;SDS011;65250;47.602;19.002;2023-04-15T10:48:50;0.97;;;0.80;;
76417;SDS011;65250;47.602;19.002;2023-04-15T10:51:28;0.45;;;0.38;;
76417;SDS011;65250;47.602;19.002;2023-04-15T10:53:56;0.40;;;0.38;;
76417;SDS011;65250;47.602;19.002;2023-04-15T10:56:26;0.30;;;0.20;;
76417;SDS011;65250;47.602;19.002;2023-04-15T10:58:53;0.38;;;0.20;;
76417;SDS011;65250;47.602;19.002;2023-04-15T11:01:21;0.80;;;0.37;;
76417;SDS011;65250;47.602;19.002;2023-04-15T11:03:50;0.30;;;0.20;;
76417;SDS011;65250;47.602;19.002;2023-04-15T11:06:17;1.35;;;0.50;;
76417;SDS011;65250;47.602;19.002;2023-04-15T11:08:54;0.47;;;0.30;;
76417;SDS011;65250;47.602;19.002;2023-04-15T11:14:39;0.90;;;0.70;;
76417;SDS011;65250;47.602;19.002;2023-04-15T11:17:07;0.57;;;0.50;;
76417;SDS011;65250;47.602;19.002;2023-04-15T11:19:37;0.50;;;0.32;;
76417;SDS011;65250;47.602;19.002;2023-04-15T11:22:10;0.47;;;0.28;;
76417;SDS011;65250;47.602;19.002;2023-04-15T11:24:45;1.20;;;0.40;;
76417;SDS011;65250;47.602;19.002;2023-04-15T11:27:22;0.50;;;0.27;;
76417;SDS011;65250;47.602;19.002;2023-04-15T11:29:49;1.50;;;0.30;;
76417;SDS011;65250;47.602;19.002;2023-04-15T11:32:16;0.50;;;0.40;;
76417;SDS011;65250;47.602;19.002;2023-04-15T11:34:44;0.60;;;0.30;;
76417;SDS011;65250;47.602;19.002;2023-04-15T11:37:12;0.70;;;0.20;;
76417;SDS011;65250;47.602;19.002;2023-04-15T11:39:39;0.60;;;0.50;;
76417;SDS011;65250;47.602;19.002;2023-04-15T11:42:15;0.75;;;0.20;;
76417;SDS011;65250;47.602;19.002;2023-04-15T11:44:42;0.35;;;0.20;;
76417;SDS011;65250;47.602;19.002;2023-04-15T11:47:22;0.38;;;0.30;;
76417;SDS011;65250;47.602;19.002;2023-04-15T11:49:49;0.50;;;0.25;;
76417;SDS011;65250;47.602;19.002;2023-04-15T11:52:16;1.10;;;0.27;;
76417;SDS011;65250;47.602;19.002;2023-04-15T11:54:43;0.60;;;0.40;;
76417;SDS011;65250;47.602;19.002;2023-04-15T11:57:10;0.28;;;0.15;;
76417;SDS011;65250;47.602;19.002;2023-04-15T11:59:43;0.43;;;0.20;;
76417;SDS011;65250;47.602;19.002;2023-04-15T12:02:11;0.65;;;0.20;;
76417;SDS011;65250;47.602;19.002;2023-04-15T12:04:39;0.40;;;0.20;;
76417;SDS011;65250;47.602;19.002;2023-04-15T12:07:07;0.52;;;0.20;;
76417;SDS011;65250;47.602;19.002;2023-04-15T12:09:37;0.60;;;0.43;;
76417;SDS011;65250;47.602;19.002;2023-04-15T12:12:05;0.30;;;0.20;;
76417;SDS011;65250;47.602;19.002;2023-04-15T12:14:32;1.25;;;0.20;;
76417;SDS011;65250;47.602;19.002;2023-04-15T12:19:28;1.73;;;0.50;;
76417;SDS011;65250;47.602;19.002;2023-04-15T12:22:03;1.40;;;0.60;;
76417;SDS011;65250;47.602;19.002;2023-04-15T12:24:31;0.75;;;0.60;;
76417;SDS011;65250;47.602;19.002;2023-04-15T12:27:03;2.33;;;0.30;;
76417;SDS011;65250;47.602;19.002;2023-04-15T12:29:31;0.23;;;0.23;;
76417;SDS011;65250;47.602;19.002;2023-04-15T12:32:21;0.52;;;0.52;;
76417;SDS011;65250;47.602;19.002;2023-04-15T12:34:50;0.60;;;0.30;;
76417;SDS011;65250;47.602;19.002;2023-04-15T12:37:18;0.40;;;0.30;;
76417;SDS011;65250;47.602;19.002;2023-04-15T12:39:47;0.40;;;0.30;;
76417;SDS011;65250;47.602;19.002;2023-04-15T12:42:15;0.70;;;0.40;;
76417;SDS011;65250;47.602;19.002;2023-04-15T12:44:42;0.50;;;0.30;;
76417;SDS011;65250;47.602;19.002;2023-04-15T12:47:09;0.45;;;0.30;;
76417;SDS011;65250;47.602;19.002;2023-04-15T12:49:36;0.40;;;0.20;;
76417;SDS011;65250;47.602;19.002;2023-04-15T12:52:04;0.30;;;0.30;;
76417;SDS011;65250;47.602;19.002;2023-04-15T12:54:31;0.30;;;0.20;;
76417;SDS011;65250;47.602;19.002;2023-04-15T12:56:58;0.63;;;0.50;;
76417;SDS011;65250;47.602;19.002;2023-04-15T12:59:26;0.68;;;0.57;;
76417;SDS011;65250;47.602;19.002;2023-04-15T13:01:53;0.82;;;0.50;;
76417;SDS011;65250;47.602;19.002;2023-04-15T13:04:20;0.82;;;0.70;;
76417;SDS011;65250;47.602;19.002;2023-04-15T13:06:48;1.00;;;0.53;;
76417;SDS011;65250;47.602;19.002;2023-04-15T13:09:14;0.50;;;0.50;;
76417;SDS011;65250;47.602;19.002;2023-04-15T13:11:41;0.80;;;0.70;;
76417;SDS011;65250;47.602;19.002;2023-04-15T13:14:08;1.05;;;0.70;;
76417;SDS011;65250;47.602;19.002;2023-04-15T13:16:37;0.95;;;0.75;;
76417;SDS011;65250;47.602;19.002;2023-04-15T13:19:04;1.60;;;0.50;;
76417;SDS011;65250;47.602;19.002;2023-04-15T13:21:31;0.55;;;0.30;;
76417;SDS011;65250;47.602;19.002;2023-04-15T13:24:01;1.75;;;0.20;;
76417;SDS011;65250;47.602;19.002;2023-04-15T13:26:29;0.73;;;0.60;;
76417;SDS011;65250;47.602;19.002;2023-04-15T13:28:56;0.95;;;0.40;;
76417;SDS011;65250;47.602;19.002;2023-04-15T13:31:23;1.90;;;0.57;;
76417;SDS011;65250;47.602;19.002;2023-04-15T13:33:50;1.98;;;0.57;;
76417;SDS011;65250;47.602;19.002;2023-04-15T13:36:16;1.00;;;0.30;;
76417;SDS011;65250;47.602;19.002;2023-04-15T13:38:43;0.50;;;0.47;;
76417;SDS011;65250;47.602;19.002;2023-04-15T13:41:10;1.08;;;0.30;;
76417;SDS011;65250;47.602;19.002;2023-04-15T13:43:37;0.70;;;0.50;;
76417;SDS011;65250;47.602;19.002;2023-04-15T13:46:04;0.60;;;0.30;;
76417;SDS011;65250;47.602;19.002;2023-04-15T13:48:31;1.35;;;0.32;;
76417;SDS011;65250;47.602;19.002;2023-04-15T13:50:57;0.85;;;0.30;;
76417;SDS011;65250;47.602;19.002;2023-04-15T13:53:24;0.55;;;0.47;;
76417;SDS011;65250;47.602;19.002;2023-04-15T13:56:04;0.73;;;0.43;;
76417;SDS011;65250;47.602;19.002;2023-04-15T13:58:34;2.00;;;0.60;;
76417;SDS011;65250;47.602;19.002;2023-04-15T14:01:02;1.00;;;0.80;;
76417;SDS011;65250;47.602;19.002;2023-04-15T14:03:31;1.13;;;0.70;;
76417;SDS011;65250;47.602;19.002;2023-04-15T14:05:59;3.60;;;0.70;;
76417;SDS011;65250;47.602;19.002;2023-04-15T14:08:26;1.03;;;0.40;;
76417;SDS011;65250;47.602;19.002;2023-04-15T14:10:53;1.00;;;0.90;;
76417;SDS011;65250;47.602;19.002;2023-04-15T14:13:19;0.70;;;0.60;;
76417;SDS011;65250;47.602;19.002;2023-04-15T14:15:46;2.00;;;1.17;;
76417;SDS011;65250;47.602;19.002;2023-04-15T14:18:13;1.65;;;0.60;;
76417;SDS011;65250;47.602;19.002;2023-04-15T14:20:40;0.60;;;0.50;;
76417;SDS011;65250;47.602;19.002;2023-04-15T14:23:07;1.83;;;0.60;;
76417;SDS011;65250;47.602;19.002;2023-04-15T14:25:33;0.85;;;0.70;;
76417;SDS011;65250;47.602;19.002;2023-04-15T14:28:01;0.88;;;0.75;;
76417;SDS011;65250;47.602;19.002;2023-04-15T14:30:28;1.52;;;1.02;;
76417;SDS011;65250;47.602;19.002;2023-04-15T14:32:56;0.97;;;0.87;;
76417;SDS011;65250;47.602;19.002;2023-04-15T14:35:22;2.45;;;1.00;;
76417;SDS011;65250;47.602;19.002;2023-04-15T14:37:52;1.13;;;0.93;;
76417;SDS011;65250;47.602;19.002;2023-04-15T14:40:19;2.88;;;1.08;;
76417;SDS011;65250;47.602;19.002;2023-04-15T14:42:46;1.42;;;0.98;;
76417;SDS011;65250;47.602;19.002;2023-04-15T14:45:13;0.90;;;0.70;;
76417;SDS011;65250;47.602;19.002;2023-04-15T14:47:39;1.00;;;0.70;;
76417;SDS011;65250;47.602;19.002;2023-04-15T14:50:06;0.65;;;0.60;;